createdAt,value
2018-07-25T10:18:46.181Z,0
2018-07-25T10:19:01.438Z,0
2018-07-25T10:19:17.781Z,0
2018-07-25T10:19:33.103Z,0
2018-07-25T10:19:48.361Z,0
2018-07-25T10:20:03.603Z,0
2018-07-25T10:20:18.813Z,0
2018-07-25T10:20:34.120Z,0
2018-07-25T10:20:50.007Z,0
2018-07-25T10:21:05.144Z,0
2018-07-25T10:21:21.279Z,0
2018-07-25T10:21:36.422Z,0
2018-07-25T10:21:51.619Z,0
2018-07-25T10:22:06.877Z,0
2018-07-25T10:22:22.068Z,0
2018-07-25T10:22:37.241Z,0
2018-07-25T10:22:52.358Z,0
2018-07-25T10:23:07.608Z,0
2018-07-25T10:23:22.828Z,0
2018-07-25T10:23:37.996Z,0
2018-07-25T10:23:53.218Z,0
2018-07-25T10:24:08.434Z,0
2018-07-25T14:41:28.380Z,0
2018-07-25T14:42:04.502Z,0
2018-07-25T14:42:18.219Z,0
2018-07-25T14:43:01.527Z,0
2018-07-25T14:43:15.387Z,0
2018-07-25T14:43:29.147Z,0
2018-07-25T14:43:42.914Z,0
2018-07-25T14:43:56.838Z,0
2018-07-25T14:44:10.706Z,0
2018-07-25T14:44:24.610Z,0
2018-07-25T14:44:38.581Z,0
2018-07-25T14:44:52.328Z,0
2018-07-25T14:45:06.190Z,0
2018-07-25T14:45:20.090Z,0
2018-07-25T14:45:33.850Z,0
2018-07-25T14:45:47.605Z,0
2018-07-25T14:46:01.364Z,0
2018-07-25T14:46:15.256Z,0
2018-07-25T14:46:29.022Z,0
2018-07-25T14:46:42.879Z,0
2018-07-25T14:50:56.662Z,0
2018-07-25T14:51:10.452Z,0
2018-07-25T14:51:24.284Z,0
2018-07-25T14:51:38.096Z,0
2018-07-25T14:51:51.670Z,0
2018-07-25T14:52:06.013Z,0
2018-07-25T14:52:19.793Z,0
2018-07-25T14:52:33.510Z,0
2018-07-25T14:52:47.307Z,0
2018-07-25T14:53:01.174Z,0
2018-07-25T14:53:15.039Z,0
2018-07-25T14:53:29.688Z,0
2018-07-25T14:53:43.529Z,0
2018-07-25T14:53:57.387Z,0
2018-07-25T14:54:11.231Z,0
2018-07-25T14:54:25.143Z,0
2018-07-25T14:54:38.899Z,0
2018-07-25T14:54:52.779Z,0
2018-07-25T14:55:06.629Z,0
2018-07-25T14:58:45.290Z,0
2018-07-25T14:58:59.115Z,0
2018-07-25T14:59:12.913Z,0
2018-07-25T14:59:26.659Z,0
2018-07-25T14:59:40.438Z,0
2018-07-25T14:59:54.190Z,0
2018-07-25T15:00:08.036Z,0
2018-07-25T15:00:21.866Z,0
2018-07-25T15:00:35.708Z,0
2018-07-25T15:00:49.484Z,0
2018-07-25T15:01:03.314Z,0
2018-07-25T15:01:17.241Z,0
2018-07-25T15:01:31.086Z,0
2018-07-25T15:01:44.950Z,0
2018-07-25T15:01:58.800Z,0
2018-07-25T15:02:12.699Z,0
2018-07-25T15:02:26.634Z,0
2018-07-25T15:02:40.361Z,0
2018-07-25T15:02:54.238Z,0
2018-07-25T15:03:07.949Z,0
2018-07-25T15:03:21.788Z,0
2018-07-25T15:03:35.632Z,0
2018-07-25T15:03:49.475Z,0
2018-07-25T15:04:03.342Z,0
2018-07-25T15:04:17.231Z,0
2018-07-25T15:04:31.034Z,0
2018-07-25T15:04:44.871Z,0
2018-07-25T15:04:58.737Z,0
2018-07-25T15:05:12.571Z,0
2018-07-25T15:17:46.850Z,0
2018-07-25T15:18:00.566Z,0
2018-07-25T15:18:15.805Z,0
2018-07-25T15:18:29.593Z,0
2018-07-25T15:18:43.405Z,0
2018-07-25T15:18:57.191Z,0
2018-07-25T15:19:10.966Z,0
2018-07-25T15:19:24.725Z,0
2018-07-25T15:19:38.473Z,0
2018-07-25T15:19:52.233Z,0
2018-07-25T15:20:06.091Z,0
2018-07-25T15:20:19.957Z,0
2018-07-25T15:20:33.810Z,0
2018-07-25T15:20:47.636Z,0
2018-07-25T15:21:01.463Z,0
2018-07-25T15:21:15.348Z,0
2018-07-25T15:21:29.265Z,0
2018-07-25T15:22:21.732Z,0
2018-07-25T15:22:57.642Z,0
2018-07-25T15:23:12.354Z,0
2018-07-25T15:23:26.203Z,0
2018-07-25T15:23:40.099Z,0
2018-07-25T15:23:53.951Z,0
2018-07-25T15:24:08.463Z,0
2018-07-25T15:24:22.293Z,0
2018-07-25T15:24:36.137Z,0
2018-07-25T15:24:49.957Z,0
2018-07-25T15:25:03.806Z,0
2018-07-25T15:25:17.675Z,0
2018-07-25T15:25:31.534Z,0
2018-07-25T15:25:45.405Z,0
2018-07-25T15:25:59.259Z,0
2018-07-25T15:26:13.116Z,0
2018-07-25T15:26:26.971Z,0
2018-07-25T15:26:40.792Z,0
2018-07-25T15:26:54.573Z,0
2018-07-25T15:27:08.434Z,0
2018-07-25T15:27:22.281Z,0
2018-07-25T15:27:36.145Z,0
2018-07-25T15:27:50.050Z,0
2018-07-25T15:28:03.880Z,0
2018-07-25T15:28:17.978Z,0
2018-07-25T15:28:31.773Z,0
2018-07-25T15:28:45.561Z,0
2018-07-25T15:28:59.393Z,0
2018-07-25T15:29:13.329Z,0
2018-07-25T15:29:26.963Z,0
2018-07-25T15:29:40.683Z,0
2018-07-25T15:29:54.671Z,0
2018-07-25T15:30:08.474Z,0
2018-07-25T15:30:22.457Z,0
2018-07-25T15:30:36.230Z,0
2018-07-25T15:30:49.986Z,0
2018-07-25T15:31:03.783Z,0
2018-07-25T15:31:17.649Z,0
2018-07-25T15:31:31.526Z,0
2018-07-25T15:31:45.392Z,0
2018-07-25T15:31:59.264Z,0
2018-07-25T15:32:13.121Z,0
2018-07-25T15:32:54.687Z,0
2018-07-25T15:33:08.456Z,0
2018-07-25T15:33:48.536Z,0
2018-07-25T15:34:02.319Z,0
2018-07-25T15:34:16.083Z,0
2018-07-25T15:34:29.860Z,0
2018-07-25T15:34:43.697Z,0
2018-07-25T15:34:57.496Z,0
2018-07-25T15:35:11.388Z,0
2018-07-25T15:35:25.246Z,0
2018-07-25T15:35:39.115Z,0
2018-07-25T15:35:52.971Z,0
2018-07-25T15:36:06.983Z,0
2018-07-25T15:36:21.460Z,0
2018-07-25T15:36:35.289Z,0
2018-07-25T15:36:49.091Z,0
2018-07-25T15:37:02.945Z,0
2018-07-25T15:37:16.815Z,0
2018-07-25T15:37:30.688Z,0
2018-07-25T15:37:44.555Z,0
2018-07-25T15:37:58.422Z,0
2018-07-25T15:38:12.288Z,0
2018-07-25T15:39:13.241Z,0
2018-07-25T15:39:27.004Z,0
2018-07-25T15:39:40.761Z,0
2018-07-25T15:39:54.512Z,0
2018-07-25T15:40:08.341Z,0
2018-07-25T15:40:22.148Z,0
2018-07-25T15:40:35.952Z,0
2018-07-25T15:40:49.832Z,0
2018-07-25T15:41:03.670Z,0
2018-07-25T15:41:18.095Z,0
2018-07-25T15:41:31.944Z,0
2018-07-25T15:41:45.861Z,0
2018-07-25T15:41:59.718Z,0
2018-07-25T15:42:14.120Z,0
2018-07-25T15:42:27.913Z,0
2018-07-25T15:42:41.766Z,0
2018-07-25T15:42:55.613Z,0
2018-07-25T15:43:09.453Z,0
2018-07-25T15:43:23.301Z,0
2018-07-25T15:43:37.137Z,0
2018-07-25T15:43:50.989Z,0
2018-07-25T15:44:04.783Z,0
2018-07-25T15:44:18.528Z,0
2018-07-25T15:44:32.297Z,0
2018-07-25T15:44:46.058Z,0
2018-07-25T15:44:59.827Z,0
2018-07-25T15:45:14.593Z,0
2018-07-25T15:45:28.356Z,0
2018-07-25T15:45:42.114Z,0
2018-07-25T15:45:55.884Z,0
2018-07-25T15:46:10.555Z,0
2018-07-25T15:46:24.405Z,0
2018-07-25T15:46:38.257Z,0
2018-07-25T15:46:52.130Z,0
2018-07-25T15:47:05.949Z,0
2018-07-25T15:47:19.847Z,0
2018-07-25T15:47:33.690Z,0
2018-07-25T15:47:47.371Z,0
2018-07-25T15:48:01.130Z,0
2018-07-25T15:48:14.879Z,0
2018-07-25T15:48:28.628Z,0
2018-07-25T15:48:42.408Z,0
2018-07-25T15:48:57.144Z,0
2018-07-25T15:49:10.941Z,0
2018-07-25T15:49:24.692Z,0
2018-07-25T15:49:38.494Z,0
2018-07-25T15:49:52.272Z,0
2018-07-25T15:50:06.151Z,0
2018-07-25T15:50:20.029Z,0
2018-07-25T15:50:33.908Z,0
2018-07-25T15:50:47.784Z,0
2018-07-25T15:51:02.348Z,0
2018-07-25T15:51:15.724Z,0
2018-07-25T15:51:30.451Z,0
2018-07-25T15:51:44.265Z,0
2018-07-25T15:51:58.305Z,0
2018-07-25T15:52:12.157Z,0
2018-07-25T15:52:26.048Z,0
2018-07-25T15:52:39.943Z,0
2018-07-25T15:52:54.808Z,0
2018-07-25T15:53:08.649Z,0
2018-07-25T15:53:22.519Z,0
2018-07-25T15:54:53.331Z,0
2018-07-25T15:55:07.081Z,0
2018-07-25T15:55:20.877Z,0
2018-07-25T15:55:34.727Z,0
2018-07-25T15:55:49.145Z,0
2018-07-25T15:56:02.996Z,0
2018-07-25T15:56:16.836Z,0
2018-07-25T15:56:30.686Z,0
2018-07-25T15:56:44.754Z,0
2018-07-25T15:56:58.590Z,0
2018-07-25T15:57:12.368Z,0
2018-07-25T15:57:26.207Z,0
2018-07-25T15:57:40.784Z,0
2018-07-25T15:57:54.625Z,0
2018-07-25T15:58:08.466Z,0
2018-07-25T15:58:22.309Z,0
2018-07-25T15:58:36.161Z,0
2018-07-25T15:58:49.969Z,0
2018-07-25T15:59:03.733Z,0
2018-07-25T15:59:18.282Z,0
2018-07-25T15:59:32.122Z,0
2018-07-25T15:59:46.695Z,0
2018-07-25T16:00:00.550Z,0
2018-07-25T16:00:14.388Z,0
2018-07-25T16:00:28.734Z,0
2018-07-25T16:00:42.549Z,0
2018-07-25T16:00:56.342Z,0
2018-07-25T16:01:10.187Z,0
2018-07-25T16:02:20.388Z,0
2018-07-25T16:02:34.655Z,0
2018-07-25T16:02:49.252Z,0
2018-07-25T16:03:03.033Z,0
2018-07-25T16:03:16.801Z,0
2018-07-25T16:03:30.565Z,0
2018-07-25T16:03:44.410Z,0
2018-07-25T16:03:58.203Z,0
2018-07-25T16:04:14.087Z,0
2018-07-25T16:04:27.829Z,0
2018-07-25T16:04:41.693Z,0
2018-07-25T16:04:55.581Z,0
2018-07-25T16:05:09.593Z,0
2018-07-25T16:05:26.008Z,0
2018-07-25T16:05:39.895Z,0
2018-07-25T16:05:54.166Z,0
2018-07-25T16:06:07.917Z,0
2018-07-25T16:06:23.188Z,0
2018-07-25T16:06:36.889Z,0
2018-07-25T16:06:50.745Z,0
2018-07-25T16:07:04.578Z,0
2018-07-25T16:07:18.417Z,0
2018-07-25T16:07:32.258Z,0
2018-07-25T17:09:54.535Z,0
2018-07-25T17:10:08.308Z,0
2018-07-25T17:10:22.093Z,0
2018-07-25T17:10:35.869Z,0
2018-07-25T17:10:50.659Z,0
2018-07-25T17:11:04.437Z,0
2018-07-25T17:11:18.222Z,0
2018-07-25T17:11:31.997Z,0
2018-07-25T17:11:45.772Z,0
2018-07-25T17:11:59.797Z,0
2018-07-25T17:12:13.577Z,0
2018-07-25T17:12:27.371Z,0
2018-07-25T17:12:41.149Z,0
2018-07-25T17:53:43.373Z,57.900002
2018-07-25T17:54:43.375Z,61
2018-07-25T17:55:43.403Z,59.400002
2018-07-25T17:56:43.427Z,56.700001
2018-07-25T17:57:43.432Z,60
2018-07-25T17:58:43.457Z,63.5
2018-07-25T17:59:43.475Z,59.200001
